Arroyo Cabral, Argentina
Current Conditions -  °F | °C
As of 9:00 PM on Monday 24 Nov 2014 (Local Time) from SAOC Reporting Station
Clear Clear  
Wind Chill: 64°   Ceiling: Unl
Heat Index: 64°   Visibility: 6mi
Dew Point: 45°   Wind: 6mph
Humidity: 49%   Direction: 140°SE
Pressure: 29.94"   Gusts: NA
Location:  32.52°S, 63.43°W
Report Text: SAOC 250000Z 14005KT 9999 NSC 18/07 Q1014
Loading
Personal Weather Stations






























Interactive Weather Map New forecast layout! Learn more

10-Day Weather Forecast

Advertisements
Track Severe Weather on mobile